Time;durP1;ratioP1;P1;durP2;ratioP2;P2;SDS_P1;SDS_P2;PMS_P1;PMS_P2;Temp;Humidity;BMP_temperature;BMP_pressure;BME280_temperature;BME280_humidity;BME280_pressure;Samples;Min_cycle;Max_cycle;Signal;HPM_P1;HPM_P2
2023/02/13 00:01:03;;;;;;;11.90;4.57;;;7.40;97.30;;;;;;5054927;28;20179;-86
2023/02/13 00:03:29;;;;;;;4.47;2.83;;;7.40;97.30;;;;;;5072988;28;20182;-86
2023/02/13 00:05:54;;;;;;;3.77;3.57;;;7.50;97.30;;;;;;5054396;28;20437;-86
2023/02/13 00:08:20;;;;;;;23.57;4.70;;;7.40;97.30;;;;;;5054716;28;20554;-86
2023/02/13 00:10:47;;;;;;;10.37;4.67;;;7.40;97.30;;;;;;5069660;28;20175;-86
2023/02/13 00:13:14;;;;;;;3.27;2.87;;;7.50;97.30;;;;;;5070089;28;20189;-86
2023/02/13 00:15:40;;;;;;;6.10;5.17;;;7.50;97.30;;;;;;5054443;28;20445;-86
2023/02/13 00:18:05;;;;;;;16.93;3.50;;;7.40;97.30;;;;;;5053807;28;20463;-85
2023/02/13 00:20:31;;;;;;;6.37;4.50;;;7.40;97.30;;;;;;5054546;28;20219;-86
2023/02/13 00:23:00;;;;;;;4.00;3.40;;;7.40;97.30;;;;;;5054207;28;20194;-86
2023/02/13 00:25:26;;;;;;;3.50;2.97;;;7.40;97.30;;;;;;5046291;28;20657;-86
2023/02/13 00:27:52;;;;;;;9.40;4.57;;;7.40;97.30;;;;;;5054255;28;20954;-86
2023/02/13 00:30:19;;;;;;;7.07;3.27;;;7.40;97.30;;;;;;5054098;28;20413;-86
2023/02/13 00:32:44;;;;;;;4.13;3.90;;;7.30;97.30;;;;;;5054019;28;20413;-86
2023/02/13 00:35:10;;;;;;;4.63;3.23;;;7.30;97.30;;;;;;5054365;28;20424;-86
2023/02/13 00:37:36;;;;;;;5.70;3.20;;;7.30;97.30;;;;;;5053296;28;20681;-86
2023/02/13 00:40:01;;;;;;;17.67;4.33;;;7.30;97.30;;;;;;5054033;28;20274;-86
2023/02/13 00:42:27;;;;;;;5.27;4.97;;;7.30;97.30;;;;;;5053600;28;20175;-86
2023/02/13 00:44:53;;;;;;;11.63;5.23;;;7.30;97.30;;;;;;5053581;28;20652;-86
2023/02/13 00:47:18;;;;;;;12.63;5.73;;;7.30;97.30;;;;;;5052821;28;20732;-86
2023/02/13 00:49:44;;;;;;;5.40;3.60;;;7.30;97.30;;;;;;5053900;28;20540;-86
2023/02/13 00:52:09;;;;;;;7.20;4.50;;;7.30;97.30;;;;;;5053563;28;20186;-86
2023/02/13 00:54:35;;;;;;;6.20;4.27;;;7.20;97.30;;;;;;5053673;28;20182;-86
2023/02/13 00:57:01;;;;;;;5.93;4.20;;;7.30;97.30;;;;;;5053938;28;20211;-86
2023/02/13 00:59:26;;;;;;;3.83;3.23;;;7.30;97.30;;;;;;5053476;28;20182;-86
2023/02/13 01:01:52;;;;;;;5.90;4.37;;;7.30;97.30;;;;;;5053687;28;20258;-86
2023/02/13 01:04:17;;;;;;;9.27;5.40;;;7.20;97.30;;;;;;5055570;28;20183;-87
2023/02/13 01:06:43;;;;;;;2.63;2.43;;;7.20;97.30;;;;;;5058910;28;20198;-86
2023/02/13 01:09:08;;;;;;;7.60;3.90;;;7.20;97.30;;;;;;5054399;28;20645;-86
2023/02/13 01:11:34;;;;;;;3.00;2.50;;;7.20;97.30;;;;;;5060181;28;20237;-86
2023/02/13 01:13:59;;;;;;;4.13;3.90;;;7.20;97.30;;;;;;5069918;28;20174;-85
2023/02/13 01:16:27;;;;;;;6.03;4.00;;;7.10;97.30;;;;;;5053049;28;20203;-86
2023/02/13 01:18:52;;;;;;;10.23;5.57;;;7.10;97.30;;;;;;5053088;28;20186;-86
2023/02/13 01:21:20;;;;;;;3.40;3.20;;;7.10;97.30;;;;;;5053212;28;20421;-86
2023/02/13 01:23:46;;;;;;;2.10;1.97;;;7.10;97.30;;;;;;5070955;28;20182;-86
2023/02/13 01:26:23;;;;;;;8.10;3.83;;;7.10;97.30;;;;;;5052944;28;20528;-86
2023/02/13 01:28:53;;;;;;;6.00;4.63;;;7.10;97.30;;;;;;5052044;28;20718;-86
2023/02/13 01:31:18;;;;;;;3.60;2.80;;;7.10;97.30;;;;;;5050446;28;20428;-86
2023/02/13 01:33:44;;;;;;;22.07;7.30;;;7.10;97.30;;;;;;5069775;28;20425;-86
2023/02/13 01:36:12;;;;;;;4.23;2.60;;;7.10;97.30;;;;;;5050980;28;20289;-86
2023/02/13 01:38:38;;;;;;;9.23;6.97;;;7.00;97.30;;;;;;5050922;28;20186;-86
2023/02/13 01:41:04;;;;;;;4.67;3.87;;;7.00;97.30;;;;;;5051367;28;20417;-87
2023/02/13 01:43:54;;;;;;;13.03;5.33;;;7.00;97.30;;;;;;5069075;28;20262;-87
2023/02/13 01:46:26;;;;;;;5.27;4.30;;;7.00;97.30;;;;;;5051535;28;20280;-86
2023/02/13 01:48:54;;;;;;;6.70;4.27;;;7.10;97.30;;;;;;5051948;28;20425;-87
2023/02/13 01:51:24;;;;;;;5.10;4.80;;;7.00;97.30;;;;;;5052438;28;20420;-87
2023/02/13 01:53:58;;;;;;;4.07;2.93;;;7.00;97.30;;;;;;5053349;28;20501;-87
2023/02/13 01:56:32;;;;;;;6.57;5.00;;;7.00;97.30;;;;;;5052261;28;20518;-86
2023/02/13 01:59:03;;;;;;;4.13;3.90;;;7.00;97.30;;;;;;5054776;28;20409;-86
2023/02/13 02:01:30;;;;;;;14.17;5.60;;;7.00;97.30;;;;;;5049283;28;20460;-86
2023/02/13 02:04:23;;;;;;;3.57;3.37;;;7.00;97.30;;;;;;5056038;28;20418;-85
2023/02/13 02:06:59;;;;;;;14.23;5.97;;;7.00;97.30;;;;;;5049118;28;20445;-86
2023/02/13 02:09:28;;;;;;;13.17;4.60;;;7.00;97.30;;;;;;5054837;28;20923;-86
2023/02/13 02:12:05;;;;;;;10.60;4.60;;;7.00;97.30;;;;;;5054459;28;20422;-86
2023/02/13 02:14:31;;;;;;;10.27;5.57;;;6.90;97.30;;;;;;5065109;28;20958;-86
2023/02/13 02:16:57;;;;;;;8.27;5.10;;;7.00;97.30;;;;;;5054375;28;20465;-86
2023/02/13 02:19:36;;;;;;;4.03;3.43;;;6.90;97.30;;;;;;5055079;28;20183;-87
2023/02/13 02:22:38;;;;;;;8.30;4.47;;;6.90;97.30;;;;;;5055671;28;20987;-86
2023/02/13 02:25:26;;;;;;;7.03;4.33;;;6.90;97.30;;;;;;5055177;28;20420;-86
2023/02/13 02:28:09;;;;;;;4.20;3.53;;;6.90;97.30;;;;;;5056175;28;20421;-86
2023/02/13 02:31:13;;;;;;;4.10;3.20;;;6.90;97.30;;;;;;5055367;28;20425;-85
2023/02/13 02:33:52;;;;;;;3.77;3.63;;;6.90;97.30;;;;;;5074986;28;20444;-86
2023/02/13 02:36:17;;;;;;;3.10;2.90;;;6.90;97.30;;;;;;5056063;28;20839;-86
2023/02/13 02:39:01;;;;;;;5.67;4.93;;;6.90;97.30;;;;;;5057003;28;20437;-86
2023/02/13 02:41:48;;;;;;;7.10;4.00;;;6.90;97.30;;;;;;5056704;28;20252;-86
2023/02/13 02:44:25;;;;;;;6.13;3.23;;;6.90;97.30;;;;;;5073972;28;20441;-86
2023/02/13 02:50:09;;;;;;;9.00;5.53;;;6.90;97.30;;;;;;5073972;28;20487;-87
2023/02/13 02:53:12;;;;;;;15.07;5.47;;;6.90;97.30;;;;;;5055922;28;20471;-86
2023/02/13 02:55:51;;;;;;;5.83;3.83;;;6.90;97.30;;;;;;5066648;28;20440;-86
2023/02/13 03:07:07;;;;;;;3.50;2.13;;;6.80;97.30;;;;;;5079160;28;20440;-86
2023/02/13 03:15:19;;;;;;;4.93;4.63;;;6.80;97.30;;;;;;5072894;28;20432;-87
2023/02/13 03:23:56;;;;;;;4.67;3.20;;;6.70;97.30;;;;;;5066576;28;20427;-86
2023/02/13 03:26:44;;;;;;;5.73;2.90;;;6.70;97.30;;;;;;5072754;28;20528;-86
2023/02/13 03:32:26;;;;;;;4.07;3.37;;;6.70;97.30;;;;;;5071041;28;20456;-86
2023/02/13 03:38:01;;;;;;;5.80;3.50;;;6.70;97.30;;;;;;5072610;28;20475;-86
2023/02/13 03:40:35;;;;;;;12.27;6.53;;;6.70;97.30;;;;;;5054263;28;20433;-86
2023/02/13 03:43:12;;;;;;;4.57;4.00;;;6.70;97.30;;;;;;5072837;28;20436;-86
2023/02/13 03:45:55;;;;;;;7.67;3.73;;;6.70;97.30;;;;;;5054449;28;20857;-86
2023/02/13 03:51:31;;;;;;;3.97;3.07;;;6.70;97.30;;;;;;5073028;28;20416;-87
2023/02/13 03:54:00;;;;;;;3.83;2.80;;;6.70;97.30;;;;;;5054230;28;20417;-86
2023/02/13 03:59:21;;;;;;;3.70;2.70;;;6.70;97.30;;;;;;5072758;28;20412;-87
2023/02/13 04:02:00;;;;;;;5.07;3.10;;;6.70;97.30;;;;;;5063456;28;20511;-86
2023/02/13 04:04:29;;;;;;;3.80;3.10;;;6.60;97.30;;;;;;5080228;28;20417;-86
2023/02/13 04:06:58;;;;;;;5.23;3.63;;;6.60;97.30;;;;;;5054276;28;20516;-85
2023/02/13 04:09:27;;;;;;;1.93;1.83;;;6.60;97.30;;;;;;5053966;28;20417;-86
2023/02/13 04:12:06;;;;;;;4.30;3.83;;;6.60;97.30;;;;;;5054175;28;20422;-86
2023/02/13 04:14:39;;;;;;;6.47;2.63;;;6.60;97.30;;;;;;5054666;28;20427;-87
2023/02/13 04:17:12;;;;;;;1.93;1.83;;;6.60;97.30;;;;;;5053900;28;20462;-86
2023/02/13 04:19:38;;;;;;;1.77;1.67;;;6.50;97.30;;;;;;5054293;28;20915;-86
2023/02/13 04:22:03;;;;;;;2.60;2.40;;;6.50;97.30;;;;;;5053150;28;20413;-87
2023/02/13 04:24:29;;;;;;;6.50;3.23;;;6.50;97.30;;;;;;5053845;28;20226;-86
2023/02/13 04:26:55;;;;;;;15.00;3.80;;;6.50;97.30;;;;;;5054468;28;20222;-86
2023/02/13 04:29:22;;;;;;;4.60;1.87;;;6.50;97.30;;;;;;5072479;28;20186;-86
2023/02/13 04:31:48;;;;;;;4.67;2.10;;;6.50;97.30;;;;;;5053412;28;20413;-86
2023/02/13 04:34:13;;;;;;;1.43;1.33;;;6.50;97.30;;;;;;5053479;28;20443;-85
2023/02/13 04:36:39;;;;;;;3.13;2.33;;;6.40;97.30;;;;;;5067638;28;20539;-86
2023/02/13 04:39:04;;;;;;;3.70;2.50;;;6.40;97.30;;;;;;5076999;28;20250;-86
2023/02/13 04:41:29;;;;;;;3.10;2.77;;;6.40;97.30;;;;;;5055849;28;20182;-86
2023/02/13 04:43:55;;;;;;;2.80;1.87;;;6.40;97.30;;;;;;5055027;28;20197;-86
2023/02/13 04:46:20;;;;;;;3.63;2.83;;;6.40;97.30;;;;;;5060668;28;20234;-87
2023/02/13 04:48:46;;;;;;;2.07;1.93;;;6.40;97.30;;;;;;5075370;28;20167;-87
2023/02/13 04:51:11;;;;;;;5.60;3.13;;;6.40;97.30;;;;;;5050132;28;20682;-86
2023/02/13 04:53:37;;;;;;;2.83;1.93;;;6.40;97.30;;;;;;5071423;28;20167;-86
2023/02/13 04:56:03;;;;;;;1.00;0.90;;;6.40;97.30;;;;;;5053300;28;20219;-85
2023/02/13 04:58:29;;;;;;;1.37;1.27;;;6.40;97.30;;;;;;5053201;28;20191;-85
2023/02/13 05:00:54;;;;;;;3.63;2.83;;;6.40;97.30;;;;;;5053955;28;20798;-86
2023/02/13 05:03:20;;;;;;;4.57;3.53;;;6.30;97.30;;;;;;5054005;28;20577;-86
2023/02/13 05:05:46;;;;;;;1.87;1.77;;;6.30;97.30;;;;;;5053660;28;20191;-86
2023/02/13 05:08:12;;;;;;;3.07;2.80;;;6.30;97.30;;;;;;5050730;28;20175;-85
2023/02/13 05:10:40;;;;;;;7.80;3.97;;;6.30;97.30;;;;;;5054491;28;20544;-85
2023/02/13 05:13:05;;;;;;;3.93;2.50;;;6.30;97.30;;;;;;5054889;28;20689;-85
2023/02/13 05:15:31;;;;;;;5.17;3.47;;;6.30;97.30;;;;;;5073284;28;20465;-86
2023/02/13 05:17:57;;;;;;;6.27;2.87;;;6.30;97.30;;;;;;5056005;28;20202;-85
2023/02/13 05:20:22;;;;;;;3.47;2.40;;;6.30;97.30;;;;;;5054876;28;20232;-86
2023/02/13 05:25:35;;;;;;;8.43;2.50;;;6.30;97.30;;;;;;5068369;28;20218;-86
2023/02/13 05:28:01;;;;;;;2.33;2.13;;;6.30;97.30;;;;;;5062233;28;20513;-85
2023/02/13 05:30:27;;;;;;;2.77;2.57;;;6.30;97.30;;;;;;5053780;28;20448;-86
2023/02/13 05:32:53;;;;;;;6.53;1.97;;;6.30;97.30;;;;;;5053896;28;20417;-86
2023/02/13 05:35:20;;;;;;;2.07;1.93;;;6.30;97.30;;;;;;5057630;28;20260;-86
2023/02/13 05:37:45;;;;;;;1.63;1.57;;;6.30;97.30;;;;;;5057755;28;20544;-87
2023/02/13 05:40:12;;;;;;;4.30;1.73;;;6.30;97.30;;;;;;5058416;28;20445;-86
2023/02/13 05:42:38;;;;;;;1.40;1.30;;;6.30;97.30;;;;;;5048767;28;20256;-86
2023/02/13 05:45:05;;;;;;;3.17;1.67;;;6.30;97.30;;;;;;5057008;28;20459;-86
2023/02/13 05:47:30;;;;;;;6.43;2.73;;;6.30;97.30;;;;;;5056166;28;20453;-85
2023/02/13 05:49:56;;;;;;;5.07;2.93;;;6.30;97.30;;;;;;5056953;28;20493;-86
2023/02/13 05:52:21;;;;;;;4.30;2.83;;;6.30;97.30;;;;;;5057536;28;20262;-86
2023/02/13 05:54:47;;;;;;;5.47;4.67;;;6.30;97.30;;;;;;5057161;28;20187;-85
2023/02/13 05:57:13;;;;;;;2.50;2.13;;;6.30;97.30;;;;;;5056727;28;20257;-84
2023/02/13 05:59:38;;;;;;;1.40;1.30;;;6.30;97.30;;;;;;5057548;28;20179;-86
2023/02/13 06:02:04;;;;;;;8.90;3.30;;;6.30;97.30;;;;;;5056943;28;20740;-86
2023/02/13 06:04:29;;;;;;;2.07;1.93;;;6.30;97.30;;;;;;5056877;28;20166;-86
2023/02/13 06:06:55;;;;;;;2.13;1.50;;;6.30;97.30;;;;;;5066904;28;20199;-87
2023/02/13 06:09:20;;;;;;;3.37;3.23;;;6.30;97.30;;;;;;5057041;28;20179;-86
2023/02/13 06:11:46;;;;;;;3.17;2.70;;;6.30;97.30;;;;;;5075030;28;20551;-86
2023/02/13 06:14:12;;;;;;;2.27;1.60;;;6.30;97.30;;;;;;5056875;28;20187;-86
2023/02/13 06:16:38;;;;;;;3.50;2.87;;;6.30;97.30;;;;;;5056617;28;20214;-86
2023/02/13 06:19:03;;;;;;;6.40;4.40;;;6.30;97.30;;;;;;5056804;28;20417;-86
2023/02/13 06:21:29;;;;;;;3.53;3.33;;;6.30;97.30;;;;;;5054718;28;20768;-86
2023/02/13 06:23:54;;;;;;;2.90;2.70;;;6.30;97.30;;;;;;5055463;28;20669;-86
2023/02/13 06:26:20;;;;;;;2.77;1.83;;;6.30;97.30;;;;;;5056038;28;20211;-86
2023/02/13 06:28:45;;;;;;;5.03;3.30;;;6.30;97.30;;;;;;5056152;28;20174;-86
2023/02/13 06:31:11;;;;;;;7.90;3.80;;;6.30;97.30;;;;;;5056245;28;20244;-86
2023/02/13 06:33:36;;;;;;;5.40;1.77;;;6.30;97.30;;;;;;5056076;28;20182;-85
2023/02/13 06:36:02;;;;;;;2.47;2.00;;;6.30;97.30;;;;;;5056110;28;20692;-87
2023/02/13 06:38:28;;;;;;;4.77;2.83;;;6.30;97.30;;;;;;5056084;28;20448;-85
2023/02/13 06:41:01;;;;;;;3.60;3.40;;;6.30;97.30;;;;;;5056198;28;20535;-86
2023/02/13 06:43:26;;;;;;;2.47;2.27;;;6.30;97.30;;;;;;5059257;28;20179;-86
2023/02/13 06:45:52;;;;;;;3.80;3.07;;;6.30;97.30;;;;;;5073009;28;21117;-86
2023/02/13 06:48:18;;;;;;;12.03;2.30;;;6.30;97.30;;;;;;5082357;28;20178;-85
2023/02/13 06:50:44;;;;;;;1.77;1.67;;;6.30;97.30;;;;;;5055705;28;20567;-86
2023/02/13 06:53:09;;;;;;;7.10;3.80;;;6.30;97.30;;;;;;5056091;28;20185;-86
2023/02/13 06:55:38;;;;;;;2.50;1.97;;;6.30;97.30;;;;;;5076217;28;20584;-86
2023/02/13 06:58:03;;;;;;;8.23;3.33;;;6.30;97.30;;;;;;5056500;28;20207;-87
2023/02/13 07:00:29;;;;;;;3.60;2.30;;;6.30;97.30;;;;;;5056765;28;20420;-86
2023/02/13 07:03:04;;;;;;;5.33;3.03;;;6.30;97.30;;;;;;5056250;28;20182;-86
2023/02/13 07:05:30;;;;;;;2.40;1.67;;;6.40;97.30;;;;;;5055716;28;20198;-86
2023/02/13 07:07:56;;;;;;;3.10;2.20;;;6.40;97.30;;;;;;5055495;28;20854;-86
2023/02/13 07:10:21;;;;;;;4.57;2.10;;;6.40;97.30;;;;;;5055500;28;20491;-86
2023/02/13 07:12:47;;;;;;;3.57;1.97;;;6.40;97.30;;;;;;5055144;28;20179;-86
2023/02/13 07:15:12;;;;;;;4.93;2.53;;;6.40;97.30;;;;;;5073391;28;20226;-86
2023/02/13 07:17:38;;;;;;;3.53;2.10;;;6.40;97.30;;;;;;5055170;28;20203;-86
2023/02/13 07:20:05;;;;;;;11.90;2.50;;;6.40;97.30;;;;;;5056070;28;20189;-86
2023/02/13 07:22:31;;;;;;;1.60;1.53;;;6.40;97.30;;;;;;5062504;28;20183;-86
2023/02/13 07:24:57;;;;;;;3.23;2.07;;;6.50;97.30;;;;;;5064196;28;20505;-87
2023/02/13 07:27:23;;;;;;;5.93;4.13;;;6.50;97.30;;;;;;5081455;28;20570;-86
2023/02/13 07:29:49;;;;;;;6.63;2.43;;;6.50;97.30;;;;;;5090505;28;20465;-86
2023/02/13 07:32:14;;;;;;;3.10;1.63;;;6.50;97.30;;;;;;5063527;28;20187;-86
2023/02/13 07:34:40;;;;;;;2.53;2.00;;;6.60;97.30;;;;;;5062738;28;20191;-86
2023/02/13 07:37:05;;;;;;;6.80;2.90;;;6.60;97.30;;;;;;5061192;28;20204;-86
2023/02/13 07:39:31;;;;;;;2.90;2.70;;;6.60;97.30;;;;;;5074437;28;20216;-86
2023/02/13 07:41:56;;;;;;;4.40;1.40;;;6.60;97.30;;;;;;5069761;28;20175;-86
2023/02/13 07:44:22;;;;;;;11.40;1.80;;;6.70;97.30;;;;;;5068479;28;20186;-86
2023/02/13 07:46:47;;;;;;;4.70;1.70;;;6.60;97.30;;;;;;5054278;28;20231;-86
2023/02/13 07:49:13;;;;;;;6.40;3.67;;;6.60;97.30;;;;;;5054916;28;20222;-86
2023/02/13 07:51:38;;;;;;;2.13;1.93;;;6.70;97.30;;;;;;5055265;28;20209;-86
2023/02/13 07:54:03;;;;;;;2.43;2.23;;;6.70;97.30;;;;;;5056012;28;20202;-86
2023/02/13 07:56:29;;;;;;;3.50;2.90;;;6.70;97.30;;;;;;5058789;28;20624;-86
2023/02/13 07:58:54;;;;;;;3.03;2.80;;;6.80;97.30;;;;;;5055179;28;20176;-86
2023/02/13 08:01:20;;;;;;;5.43;1.97;;;6.80;97.30;;;;;;5054734;28;20728;-85
2023/02/13 08:03:50;;;;;;;2.13;1.50;;;6.80;97.30;;;;;;5054432;28;20186;-86
2023/02/13 08:06:15;;;;;;;1.20;1.10;;;6.80;97.30;;;;;;5046802;28;20619;-86
2023/02/13 08:08:41;;;;;;;3.07;1.87;;;6.90;97.30;;;;;;5054205;28;20448;-86
2023/02/13 08:14:16;;;;;;;2.17;1.43;;;6.90;97.30;;;;;;5067900;28;20194;-86
2023/02/13 08:16:41;;;;;;;1.80;1.70;;;6.90;97.30;;;;;;5053866;28;20473;-86
2023/02/13 08:19:07;;;;;;;6.63;2.83;;;7.00;97.30;;;;;;5054106;28;20187;-86
2023/02/13 08:21:34;;;;;;;4.20;2.80;;;7.00;97.30;;;;;;5053988;28;20179;-85
2023/02/13 08:23:59;;;;;;;2.40;2.20;;;7.00;97.30;;;;;;5077855;28;20237;-86
2023/02/13 08:26:25;;;;;;;1.33;1.27;;;7.00;97.30;;;;;;5056799;28;20438;-85
2023/02/13 08:28:50;;;;;;;8.23;3.33;;;7.10;97.30;;;;;;5054136;28;20179;-86
2023/02/13 08:31:16;;;;;;;2.30;2.10;;;7.10;97.30;;;;;;5054217;28;20183;-86
2023/02/13 08:33:41;;;;;;;2.73;2.53;;;7.10;97.30;;;;;;5053834;28;20186;-86
2023/02/13 08:36:07;;;;;;;3.70;2.80;;;7.10;97.30;;;;;;5078122;28;20234;-86
2023/02/13 08:38:33;;;;;;;2.70;2.50;;;7.10;97.30;;;;;;5072548;28;20175;-86
2023/02/13 08:40:58;;;;;;;5.80;4.07;;;7.10;97.30;;;;;;5059141;28;20424;-86
2023/02/13 08:43:24;;;;;;;2.37;2.17;;;7.10;97.30;;;;;;5063179;28;20294;-86
2023/02/13 08:45:49;;;;;;;2.40;2.20;;;7.20;97.30;;;;;;5054599;28;20210;-86
2023/02/13 08:48:15;;;;;;;3.57;2.07;;;7.20;97.30;;;;;;5054135;28;20351;-85
2023/02/13 08:50:40;;;;;;;2.00;1.90;;;7.10;97.30;;;;;;5053779;28;20206;-86
2023/02/13 08:53:06;;;;;;;3.93;1.80;;;7.10;97.30;;;;;;5071629;28;20206;-86
2023/02/13 08:55:32;;;;;;;3.90;2.63;;;7.10;97.30;;;;;;5081938;28;20826;-86
2023/02/13 08:58:02;;;;;;;3.57;2.30;;;7.10;97.30;;;;;;5060537;28;20229;-87
2023/02/13 09:00:28;;;;;;;3.03;2.73;;;7.10;97.30;;;;;;5054618;28;20178;-86
2023/02/13 09:02:54;;;;;;;2.20;1.23;;;7.10;97.30;;;;;;5069371;28;20422;-85
2023/02/13 09:05:19;;;;;;;7.20;2.60;;;7.10;97.30;;;;;;5053669;28;20441;-86
2023/02/13 09:07:45;;;;;;;5.80;4.30;;;7.10;97.30;;;;;;5053490;28;20182;-86
2023/02/13 09:10:10;;;;;;;4.30;2.93;;;7.10;97.30;;;;;;5071287;28;20189;-86
2023/02/13 09:12:36;;;;;;;3.33;2.57;;;7.10;97.30;;;;;;5053479;28;20237;-86
2023/02/13 09:15:03;;;;;;;3.57;2.77;;;7.10;97.30;;;;;;5070930;28;20181;-85
2023/02/13 09:17:29;;;;;;;2.23;2.03;;;7.10;97.30;;;;;;5053111;28;20683;-86
2023/02/13 09:19:54;;;;;;;2.70;2.13;;;7.10;97.30;;;;;;5053301;28;20542;-86
2023/02/13 09:22:20;;;;;;;1.90;1.77;;;7.20;97.30;;;;;;5053546;28;20236;-86
2023/02/13 09:24:45;;;;;;;3.70;2.83;;;7.20;97.30;;;;;;5054021;28;20190;-86
2023/02/13 09:27:11;;;;;;;5.83;3.70;;;7.20;97.30;;;;;;5053064;28;20217;-85
2023/02/13 09:29:36;;;;;;;2.43;2.23;;;7.10;97.30;;;;;;5053011;28;20281;-86
2023/02/13 09:32:04;;;;;;;2.50;2.30;;;7.10;97.30;;;;;;5052826;28;20269;-86
2023/02/13 09:34:29;;;;;;;3.20;2.40;;;7.00;97.30;;;;;;5053366;28;20661;-86
2023/02/13 09:36:55;;;;;;;6.33;2.70;;;7.00;97.30;;;;;;5068414;28;20457;-86
2023/02/13 09:39:20;;;;;;;3.50;2.20;;;7.00;97.30;;;;;;5070812;28;20182;-86
2023/02/13 09:41:48;;;;;;;2.23;2.03;;;7.10;97.30;;;;;;5052654;28;20179;-85
2023/02/13 09:44:33;;;;;;;1.50;1.40;;;7.10;97.30;;;;;;5070968;28;20274;-86
2023/02/13 09:47:05;;;;;;;1.43;1.33;;;7.20;97.30;;;;;;5045409;28;20476;-86
2023/02/13 09:49:34;;;;;;;3.20;3.00;;;7.20;97.30;;;;;;5052785;28;20939;-86
2023/02/13 09:52:00;;;;;;;3.73;2.33;;;7.20;97.30;;;;;;5052704;28;20424;-86
2023/02/13 09:54:27;;;;;;;2.67;2.20;;;7.30;97.30;;;;;;5052477;28;20424;-85
2023/02/13 09:57:06;;;;;;;6.63;3.87;;;7.30;97.30;;;;;;5056374;28;20468;-86
2023/02/13 09:59:45;;;;;;;3.23;1.47;;;7.30;97.30;;;;;;5054774;28;20459;-86
2023/02/13 10:02:49;;;;;;;2.60;2.33;;;7.40;97.30;;;;;;5070796;28;20424;-86
2023/02/13 10:05:30;;;;;;;3.13;2.07;;;7.40;97.30;;;;;;5072755;28;21005;-86
2023/02/13 10:08:21;;;;;;;1.57;1.53;;;7.50;97.30;;;;;;5041047;28;20433;-86
2023/02/13 10:11:25;;;;;;;3.53;2.23;;;7.50;97.30;;;;;;5052122;28;20417;-86
2023/02/13 10:14:00;;;;;;;6.60;1.60;;;7.50;97.30;;;;;;5052090;28;20420;-85
2023/02/13 10:16:39;;;;;;;4.10;3.13;;;7.50;97.30;;;;;;5052035;28;20560;-85
2023/02/13 10:19:27;;;;;;;3.00;2.80;;;7.50;97.30;;;;;;5052847;28;20417;-86
2023/02/13 10:22:05;;;;;;;10.60;3.53;;;7.50;97.30;;;;;;5048970;28;20514;-86
2023/02/13 10:24:47;;;;;;;1.73;1.63;;;7.60;97.30;;;;;;5056160;28;20438;-87
2023/02/13 10:27:24;;;;;;;5.03;3.00;;;7.60;97.30;;;;;;5056313;28;20472;-86
2023/02/13 10:30:03;;;;;;;3.00;2.50;;;7.50;97.30;;;;;;5065924;28;20425;-86
2023/02/13 10:32:43;;;;;;;3.73;3.53;;;7.50;97.30;;;;;;5055544;28;20429;-86
2023/02/13 10:35:34;;;;;;;1.80;1.27;;;7.60;97.30;;;;;;5061066;28;20507;-86
2023/02/13 10:38:11;;;;;;;3.60;1.83;;;7.60;97.30;;;;;;5049276;28;20469;-84
2023/02/13 10:40:42;;;;;;;13.50;2.77;;;7.70;97.30;;;;;;5056150;28;20416;-86
2023/02/13 10:43:10;;;;;;;3.97;3.20;;;7.70;97.30;;;;;;5056347;28;20417;-86
2023/02/13 10:46:02;;;;;;;4.27;2.87;;;7.80;97.30;;;;;;5082125;28;20934;-86
2023/02/13 10:48:58;;;;;;;3.17;2.97;;;7.80;97.30;;;;;;5065446;28;20428;-86
2023/02/13 10:52:03;;;;;;;8.90;2.70;;;7.90;97.30;;;;;;5056081;28;20414;-86
2023/02/13 10:54:58;;;;;;;1.90;1.80;;;7.90;97.30;;;;;;4968349;28;20509;-85
2023/02/13 10:58:01;;;;;;;2.73;2.53;;;8.00;97.30;;;;;;5055434;28;20465;-87
2023/02/13 11:00:34;;;;;;;2.80;2.60;;;7.90;97.30;;;;;;5051702;28;20417;-86
2023/02/13 11:02:59;;;;;;;3.97;2.37;;;7.80;97.30;;;;;;5055833;28;20409;-86
2023/02/13 11:05:37;;;;;;;1.93;1.63;;;7.80;97.30;;;;;;5073789;28;20462;-86
2023/02/13 11:08:14;;;;;;;1.77;1.67;;;7.80;97.30;;;;;;5068771;28;20178;-86
2023/02/13 11:10:39;;;;;;;1.30;1.20;;;7.80;97.30;;;;;;5085251;28;20428;-86
2023/02/13 11:13:23;;;;;;;3.43;1.47;;;7.80;97.30;;;;;;5067395;28;20789;-86
2023/02/13 11:16:09;;;;;;;2.40;2.13;;;7.70;97.30;;;;;;5067745;28;20716;-86
2023/02/13 11:18:40;;;;;;;3.10;2.90;;;7.80;97.30;;;;;;5066724;28;20430;-86
2023/02/13 11:21:07;;;;;;;1.57;1.27;;;7.80;97.30;;;;;;5055910;28;20501;-86
2023/02/13 11:23:40;;;;;;;2.53;1.73;;;7.90;97.30;;;;;;5055825;28;20425;-85
2023/02/13 11:26:10;;;;;;;2.43;2.27;;;8.00;97.30;;;;;;5056364;28;20436;-86
2023/02/13 11:28:43;;;;;;;3.40;2.47;;;8.10;97.30;;;;;;5055269;28;20426;-86
2023/02/13 11:31:14;;;;;;;4.20;2.83;;;8.20;97.30;;;;;;5055312;28;20986;-86
2023/02/13 11:33:40;;;;;;;5.40;1.60;;;8.40;97.30;;;;;;5056273;28;20954;-85
2023/02/13 11:36:09;;;;;;;7.83;2.20;;;8.30;97.30;;;;;;5055080;28;20503;-86
2023/02/13 11:38:35;;;;;;;1.33;1.20;;;8.30;97.30;;;;;;5055678;28;20433;-85
2023/02/13 11:41:12;;;;;;;1.67;1.30;;;8.30;97.30;;;;;;5075922;28;20414;-86
2023/02/13 11:43:48;;;;;;;1.10;1.00;;;8.20;97.30;;;;;;5056916;28;20171;-85
2023/02/13 11:46:20;;;;;;;1.60;1.50;;;8.00;97.30;;;;;;5057359;28;20468;-85
2023/02/13 11:49:03;;;;;;;1.30;1.20;;;8.00;97.30;;;;;;5077500;28;20446;-85
2023/02/13 11:51:44;;;;;;;1.00;0.90;;;7.90;97.30;;;;;;5060967;28;20449;-85
2023/02/13 11:54:27;;;;;;;1.30;1.20;;;7.90;97.30;;;;;;5055328;28;20504;-86
2023/02/13 11:56:59;;;;;;;1.67;1.00;;;7.90;97.30;;;;;;5054885;28;20850;-85
2023/02/13 11:59:29;;;;;;;1.40;1.30;;;7.90;97.30;;;;;;5055449;28;21065;-85
2023/02/13 12:02:22;;;;;;;2.23;2.03;;;7.90;97.30;;;;;;5046683;28;20434;-86
2023/02/13 12:04:51;;;;;;;1.50;1.43;;;7.90;97.30;;;;;;5053619;28;20448;-85
2023/02/13 12:07:22;;;;;;;0.97;0.87;;;7.90;97.30;;;;;;5054927;28;20800;-86
2023/02/13 12:10:09;;;;;;;2.27;2.07;;;8.00;97.30;;;;;;5072671;28;20432;-85
2023/02/13 12:12:43;;;;;;;8.30;1.73;;;8.00;97.30;;;;;;5080094;28;20436;-86
2023/02/13 12:15:20;;;;;;;1.37;1.27;;;8.00;97.30;;;;;;5066709;28;20425;-86
2023/02/13 12:18:02;;;;;;;4.13;1.93;;;8.00;97.30;;;;;;5074270;28;20900;-86
2023/02/13 12:20:56;;;;;;;1.70;1.60;;;8.00;97.30;;;;;;5058405;28;20425;-86
2023/02/13 12:23:40;;;;;;;1.53;1.43;;;8.00;97.30;;;;;;5050348;28;20452;-86
2023/02/13 12:26:27;;;;;;;1.40;1.30;;;8.00;97.30;;;;;;5047131;28;20437;-85
2023/02/13 12:29:26;;;;;;;1.73;1.63;;;7.90;97.30;;;;;;5053748;28;20413;-85
2023/02/13 12:32:31;;;;;;;4.00;2.43;;;7.90;97.30;;;;;;5054195;28;20457;-86
2023/02/13 12:35:21;;;;;;;1.83;1.77;;;7.90;97.30;;;;;;5054232;28;20916;-85
2023/02/13 12:38:20;;;;;;;1.10;1.00;;;7.90;97.30;;;;;;5071846;28;20836;-85
2023/02/13 12:41:09;;;;;;;1.93;1.83;;;8.00;97.30;;;;;;5054101;28;20418;-86
2023/02/13 12:43:59;;;;;;;5.03;1.67;;;8.00;97.30;;;;;;5054451;28;20413;-86
2023/02/13 12:46:49;;;;;;;1.70;1.47;;;8.00;97.30;;;;;;5054729;28;20473;-85
2023/02/13 12:49:58;;;;;;;1.67;1.57;;;8.10;97.30;;;;;;5054825;28;20988;-86
2023/02/13 12:52:41;;;;;;;3.70;2.23;;;8.00;97.30;;;;;;5049794;28;20421;-85
2023/02/13 12:55:33;;;;;;;1.93;1.83;;;8.00;97.30;;;;;;5046715;28;20932;-86
2023/02/13 12:58:06;;;;;;;2.03;1.67;;;8.00;97.30;;;;;;5063974;28;21035;-86
2023/02/13 13:01:16;;;;;;;1.67;1.53;;;7.90;97.30;;;;;;5054101;28;20421;-85
2023/02/13 13:03:58;;;;;;;4.83;1.70;;;7.90;97.30;;;;;;5051718;28;20472;-86
2023/02/13 13:06:43;;;;;;;8.27;3.07;;;7.80;97.30;;;;;;5054106;28;20437;-85
2023/02/13 13:09:26;;;;;;;2.20;1.67;;;7.80;97.30;;;;;;5054136;28;20429;-85
2023/02/13 13:12:12;;;;;;;1.83;1.73;;;7.70;97.30;;;;;;5053191;28;20436;-85
2023/02/13 13:15:01;;;;;;;5.87;1.97;;;7.70;97.30;;;;;;5054229;28;20597;-85
2023/02/13 13:17:31;;;;;;;3.93;2.03;;;7.80;97.30;;;;;;5054335;28;20503;-86
2023/02/13 13:20:29;;;;;;;2.20;2.00;;;7.80;97.30;;;;;;5054101;28;20418;-86
2023/02/13 13:23:12;;;;;;;1.33;1.23;;;7.80;97.30;;;;;;5053623;28;20446;-85
2023/02/13 13:25:49;;;;;;;2.70;2.20;;;7.80;97.30;;;;;;5071906;28;20437;-86
2023/02/13 13:28:20;;;;;;;1.60;1.47;;;7.80;97.30;;;;;;5053677;28;20421;-85
2023/02/13 13:30:47;;;;;;;1.00;0.90;;;7.90;97.30;;;;;;5072008;28;20413;-85
2023/02/13 13:33:16;;;;;;;1.77;1.27;;;7.90;97.30;;;;;;5071201;28;20418;-86
2023/02/13 13:35:50;;;;;;;7.23;3.03;;;8.00;97.30;;;;;;5054208;28;20441;-86
2023/02/13 13:38:34;;;;;;;9.27;1.67;;;8.00;97.30;;;;;;5073589;28;20528;-85
2023/02/13 13:41:31;;;;;;;2.27;2.07;;;8.00;97.30;;;;;;5044860;28;20441;-86
2023/02/13 13:43:56;;;;;;;2.17;1.67;;;8.00;97.30;;;;;;5066779;28;20406;-86
2023/02/13 13:46:52;;;;;;;2.00;1.70;;;8.00;97.30;;;;;;5060930;28;20985;-85
2023/02/13 13:49:34;;;;;;;1.73;1.43;;;8.00;97.30;;;;;;5048666;28;20590;-85
2023/02/13 13:52:18;;;;;;;1.90;1.80;;;8.00;97.30;;;;;;5044975;28;20452;-85
2023/02/13 13:54:50;;;;;;;1.83;1.30;;;8.00;97.30;;;;;;5047582;28;20947;-86
2023/02/13 13:57:16;;;;;;;2.43;2.03;;;8.00;97.30;;;;;;5064616;28;20468;-86
2023/02/13 13:59:50;;;;;;;1.23;1.13;;;8.00;97.30;;;;;;5050515;28;20428;-85
2023/02/13 14:02:16;;;;;;;1.87;1.77;;;8.10;97.30;;;;;;5052600;28;21682;-85